Aviation Digital Data Service (ADDS)

Output produced by METARs form (0749 UTC 24 May 2018)
found at http://www.aviationweather.gov/adds/metars/
 
KBID 240656Z AUTO 02004KT 10SM CLR 16/11 A2998 RMK AO2 SLP155 T01610106
KUUU 240653Z AUTO 02006KT 10SM CLR 15/13 A2998 RMK AO2 SLP149 T01500133
KOQU 240250Z 03007KT 15SM SKC 21/12 A2994 RMK LAST
KSFZ 240656Z AUTO 10SM CLR 13/12 A3000 RMK AO2 SLP104 T01330122 $
KPVD 240651Z 03007KT 10SM CLR 15/13 A2999 RMK AO2 SLP155 T01500128 $
KPVD 240533Z 2406/2506 VRB04KT P6SM FEW250 
     FM241100 35005KT P6SM SCT100 
     FM241700 01008G16KT P6SM FEW120 
     FM241900 08007KT P6SM FEW140 
     FM242100 17009KT P6SM FEW250
       
KWST 240653Z AUTO 35004KT 10SM CLR 17/11 A2998 RMK AO2 SLP152 T01720111